Time;durP1;ratioP1;P1;durP2;ratioP2;P2;SDS_P1;SDS_P2;PMS_P1;PMS_P2;Temp;Humidity;BMP_temperature;BMP_pressure;BME280_temperature;BME280_humidity;BME280_pressure;Samples;Min_cycle;Max_cycle;Signal;HPM_P1;HPM_P2
2023/11/24 00:00:29;;;;;;;;;9.33;9.33;;;;;;;;4924425;28;45423;-80
2023/11/24 00:02:54;;;;;;;;;10.00;10.00;;;;;;;;4907246;28;47364;-80
2023/11/24 00:05:21;;;;;;;;;10.75;10.75;;;;;;;;4924363;28;45313;-80
2023/11/24 00:07:46;;;;;;;;;9.67;9.00;;;;;;;;4924320;28;45263;-80
2023/11/24 00:10:11;;;;;;;;;9.33;9.33;;;;;;;;4906731;28;46122;-80
2023/11/24 00:12:37;;;;;;;;;11.00;11.00;;;;;;;;4923961;28;45257;-79
2023/11/24 00:15:03;;;;;;;;;12.67;12.67;;;;;;;;4924195;28;45306;-80
2023/11/24 00:17:29;;;;;;;;;14.00;12.67;;;;;;;;4906729;28;45346;-80
2023/11/24 00:19:54;;;;;;;;;12.00;8.33;;;;;;;;4906646;28;47037;-79
2023/11/24 00:22:19;;;;;;;;;12.33;9.33;;;;;;;;4924071;28;46316;-79
2023/11/24 00:24:44;;;;;;;;;13.00;13.00;;;;;;;;4924268;28;45461;-79
2023/11/24 00:27:09;;;;;;;;;11.00;9.00;;;;;;;;4923924;28;45539;-78
2023/11/24 00:29:35;;;;;;;;;9.67;8.67;;;;;;;;4923963;28;45439;-80
2023/11/24 00:32:00;;;;;;;;;13.00;12.00;;;;;;;;4923909;28;46483;-80
2023/11/24 00:34:25;;;;;;;;;12.00;10.67;;;;;;;;4923846;28;45268;-79
2023/11/24 00:36:51;;;;;;;;;13.00;12.00;;;;;;;;4923655;28;45327;-79
2023/11/24 00:39:17;;;;;;;;;12.67;11.33;;;;;;;;4906553;28;46032;-79
2023/11/24 00:41:42;;;;;;;;;12.00;9.33;;;;;;;;4923346;28;45425;-80
2023/11/24 00:44:07;;;;;;;;;11.33;11.33;;;;;;;;4906411;28;45296;-80
2023/11/24 00:46:32;;;;;;;;;9.67;8.00;;;;;;;;4923892;28;45377;-79
2023/11/24 00:48:58;;;;;;;;;9.50;9.00;;;;;;;;4906406;28;46901;-80
2023/11/24 00:51:24;;;;;;;;;9.00;9.00;;;;;;;;4906456;28;48068;-79
2023/11/24 00:53:49;;;;;;;;;11.67;9.67;;;;;;;;4906395;28;45959;-79
2023/11/24 00:56:14;;;;;;;;;11.33;9.00;;;;;;;;4923635;28;45259;-80
2023/11/24 00:58:40;;;;;;;;;9.67;7.00;;;;;;;;4888365;29;45893;-79
2023/11/24 01:01:09;;;;;;;;;10.00;10.00;;;;;;;;4904172;29;45321;-81
2023/11/24 01:03:34;;;;;;;;;10.00;9.00;;;;;;;;4903923;29;45285;-80
2023/11/24 01:05:59;;;;;;;;;13.67;12.33;;;;;;;;4904437;29;45398;-80
2023/11/24 01:08:25;;;;;;;;;9.67;8.33;;;;;;;;4903755;29;45526;-80
2023/11/24 01:10:52;;;;;;;;;13.33;11.33;;;;;;;;4903598;29;46133;-80
2023/11/24 01:13:17;;;;;;;;;11.33;11.33;;;;;;;;4904112;29;45449;-80
2023/11/24 01:15:42;;;;;;;;;14.33;11.00;;;;;;;;4904396;29;45276;-80
2023/11/24 01:18:08;;;;;;;;;11.00;11.00;;;;;;;;4904151;29;45369;-80
2023/11/24 01:20:33;;;;;;;;;9.00;9.00;;;;;;;;4904049;29;45383;-80
2023/11/24 01:22:58;;;;;;;;;12.67;10.00;;;;;;;;4904071;29;45444;-79
2023/11/24 01:25:24;;;;;;;;;11.00;10.67;;;;;;;;4904219;29;45466;-80
2023/11/24 01:27:49;;;;;;;;;11.67;11.00;;;;;;;;4886764;29;46980;-80
2023/11/24 01:30:15;;;;;;;;;10.33;10.33;;;;;;;;4885764;29;48317;-80
2023/11/24 01:32:40;;;;;;;;;10.00;9.67;;;;;;;;4886472;29;45539;-79
2023/11/24 01:35:06;;;;;;;;;13.67;12.33;;;;;;;;4886546;29;45385;-80
2023/11/24 01:37:31;;;;;;;;;12.67;12.67;;;;;;;;4886642;29;46591;-80
2023/11/24 01:39:56;;;;;;;;;10.00;10.00;;;;;;;;4904055;29;46458;-80
2023/11/24 01:42:22;;;;;;;;;13.00;11.67;;;;;;;;4903669;29;45475;-80
2023/11/24 01:44:47;;;;;;;;;14.00;10.33;;;;;;;;4886864;29;45165;-80
2023/11/24 01:47:13;;;;;;;;;13.00;10.33;;;;;;;;4903447;29;45181;-80
2023/11/24 01:49:39;;;;;;;;;11.33;11.33;;;;;;;;4886443;29;47891;-79
2023/11/24 01:52:05;;;;;;;;;12.67;11.33;;;;;;;;4903803;29;45229;-81
2023/11/24 01:54:36;;;;;;;;;14.00;11.00;;;;;;;;4903860;29;45220;-81
2023/11/24 01:57:01;;;;;;;;;12.00;12.00;;;;;;;;4907826;28;45349;-79
2023/11/24 01:59:27;;;;;;;;;13.33;13.33;;;;;;;;4905410;28;47307;-80
2023/11/24 02:01:52;;;;;;;;;12.33;12.33;;;;;;;;4922664;28;45303;-80
2023/11/24 02:04:17;;;;;;;;;11.67;10.67;;;;;;;;4922508;28;45258;-80
2023/11/24 02:06:43;;;;;;;;;13.67;12.67;;;;;;;;4905225;28;45932;-79
2023/11/24 02:09:09;;;;;;;;;18.00;16.67;;;;;;;;4905274;28;47341;-80
2023/11/24 02:11:35;;;;;;;;;8.00;8.00;;;;;;;;4922014;28;45262;-80
2023/11/24 02:14:00;;;;;;;;;14.00;13.67;;;;;;;;4905266;28;45734;-79
2023/11/24 02:16:25;;;;;;;;;13.00;11.33;;;;;;;;4905212;28;46012;-79
2023/11/24 02:18:50;;;;;;;;;12.33;12.33;;;;;;;;4905115;28;48099;-79
2023/11/24 02:21:17;;;;;;;;;9.33;9.33;;;;;;;;4922340;28;45269;-80
2023/11/24 02:23:42;;;;;;;;;11.00;10.00;;;;;;;;4922254;28;45429;-79
2023/11/24 02:26:09;;;;;;;;;11.67;11.00;;;;;;;;4922286;28;45345;-80
2023/11/24 02:28:34;;;;;;;;;15.00;14.67;;;;;;;;4921914;28;45302;-79
2023/11/24 02:31:01;;;;;;;;;13.33;13.33;;;;;;;;4922057;28;45283;-79
2023/11/24 02:33:27;;;;;;;;;14.00;11.33;;;;;;;;4905037;28;45357;-79
2023/11/24 02:35:53;;;;;;;;;16.67;12.00;;;;;;;;4922097;28;45308;-80
2023/11/24 02:38:18;;;;;;;;;15.67;12.67;;;;;;;;4922068;28;45391;-78
2023/11/24 02:40:43;;;;;;;;;15.67;13.00;;;;;;;;4904665;28;45282;-79
2023/11/24 02:43:09;;;;;;;;;10.67;8.00;;;;;;;;4904938;28;45477;-78
2023/11/24 02:45:34;;;;;;;;;12.00;12.00;;;;;;;;4922115;28;45390;-79
2023/11/24 02:48:00;;;;;;;;;13.00;11.33;;;;;;;;4921988;28;45264;-80
2023/11/24 02:50:25;;;;;;;;;16.00;15.00;;;;;;;;4904671;28;45197;-79
2023/11/24 02:52:50;;;;;;;;;12.33;12.00;;;;;;;;4922218;28;45205;-80
2023/11/24 02:55:16;;;;;;;;;9.33;9.33;;;;;;;;4921883;28;45198;-80
2023/11/24 02:57:43;;;;;;;;;14.33;12.67;;;;;;;;4911585;28;45262;-80
2023/11/24 03:00:09;;;;;;;;;15.67;14.00;;;;;;;;4902622;29;45410;-79
2023/11/24 03:02:34;;;;;;;;;11.00;10.00;;;;;;;;4885736;29;45402;-80
2023/11/24 03:04:59;;;;;;;;;10.00;9.67;;;;;;;;4902341;29;45419;-79
2023/11/24 03:07:25;;;;;;;;;12.00;11.67;;;;;;;;4884502;29;46983;-80
2023/11/24 03:09:50;;;;;;;;;11.33;10.33;;;;;;;;4885600;29;45331;-80
2023/11/24 03:12:16;;;;;;;;;10.33;10.00;;;;;;;;4885540;29;45330;-79
2023/11/24 03:14:42;;;;;;;;;11.00;9.67;;;;;;;;4885448;29;46429;-81
2023/11/24 03:17:08;;;;;;;;;9.00;9.00;;;;;;;;4885473;29;48202;-80
2023/11/24 03:19:33;;;;;;;;;7.00;6.33;;;;;;;;4885443;29;45190;-80
2023/11/24 03:21:58;;;;;;;;;12.67;11.33;;;;;;;;4885549;29;45422;-80
2023/11/24 03:24:23;;;;;;;;;8.00;8.00;;;;;;;;4885526;29;46443;-80
2023/11/24 03:26:48;;;;;;;;;10.33;10.33;;;;;;;;4902453;29;45338;-80
2023/11/24 03:29:14;;;;;;;;;11.00;11.00;;;;;;;;4885543;29;45256;-79
2023/11/24 03:31:39;;;;;;;;;8.67;8.00;;;;;;;;4902689;29;45356;-80
2023/11/24 03:34:05;;;;;;;;;10.33;9.67;;;;;;;;4902307;29;45487;-80
2023/11/24 03:36:30;;;;;;;;;9.00;9.00;;;;;;;;4885112;29;48315;-80
2023/11/24 03:38:55;;;;;;;;;10.00;10.00;;;;;;;;4902396;29;45236;-79
2023/11/24 03:41:21;;;;;;;;;9.00;9.00;;;;;;;;4902344;29;45293;-78
2023/11/24 03:43:46;;;;;;;;;8.00;8.00;;;;;;;;4902504;29;45161;-80
2023/11/24 03:46:14;;;;;;;;;12.00;8.00;;;;;;;;4901612;29;45618;-79
2023/11/24 03:48:40;;;;;;;;;12.00;10.00;;;;;;;;4884154;29;45319;-80
2023/11/24 03:51:06;;;;;;;;;10.33;10.33;;;;;;;;4901785;29;45514;-79
2023/11/24 03:53:31;;;;;;;;;11.33;10.00;;;;;;;;4904262;29;45499;-80
2023/11/24 03:55:56;;;;;;;;;8.33;8.00;;;;;;;;4905423;29;46358;-81
2023/11/24 03:58:21;;;;;;;;;9.33;8.00;;;;;;;;4903319;28;45448;-80
2023/11/24 04:00:47;;;;;;;;;11.67;11.67;;;;;;;;4907319;28;45340;-80
2023/11/24 04:03:13;;;;;;;;;11.00;10.33;;;;;;;;4924249;28;45397;-80
2023/11/24 04:05:38;;;;;;;;;12.67;11.00;;;;;;;;4906944;28;45960;-81
2023/11/24 04:08:04;;;;;;;;;6.67;6.67;;;;;;;;4924376;28;45388;-79
2023/11/24 04:10:29;;;;;;;;;12.33;10.67;;;;;;;;4924372;28;45468;-79
2023/11/24 04:12:54;;;;;;;;;11.00;9.67;;;;;;;;4906743;28;46001;-80
2023/11/24 04:15:19;;;;;;;;;11.33;9.67;;;;;;;;4924338;28;45314;-80
2023/11/24 04:17:45;;;;;;;;;9.33;8.00;;;;;;;;4924346;28;45344;-80
2023/11/24 04:20:10;;;;;;;;;10.33;10.33;;;;;;;;4924157;28;45481;-80
2023/11/24 04:22:36;;;;;;;;;8.67;8.67;;;;;;;;4906657;28;47158;-80
2023/11/24 04:25:01;;;;;;;;;13.33;11.33;;;;;;;;4906988;28;46993;-80
2023/11/24 04:27:27;;;;;;;;;11.00;11.00;;;;;;;;4923741;28;45443;-80
2023/11/24 04:29:52;;;;;;;;;11.00;11.00;;;;;;;;4914169;28;45317;-80
2023/11/24 04:32:17;;;;;;;;;10.33;10.33;;;;;;;;4904882;29;45325;-80
2023/11/24 04:34:43;;;;;;;;;11.67;11.67;;;;;;;;4904651;29;45319;-80
2023/11/24 04:37:08;;;;;;;;;10.33;9.67;;;;;;;;4904677;29;45328;-80
2023/11/24 04:39:33;;;;;;;;;11.67;9.67;;;;;;;;4904881;29;45505;-80
2023/11/24 04:41:58;;;;;;;;;13.00;11.00;;;;;;;;4904505;29;45368;-79
2023/11/24 04:44:23;;;;;;;;;11.00;11.00;;;;;;;;4886392;29;46911;-80
2023/11/24 04:46:49;;;;;;;;;9.00;8.00;;;;;;;;4904682;29;45349;-80
2023/11/24 04:49:14;;;;;;;;;9.00;9.00;;;;;;;;4887462;29;45328;-80
2023/11/24 04:51:40;;;;;;;;;13.67;10.67;;;;;;;;4904607;29;45377;-80
2023/11/24 04:54:05;;;;;;;;;12.00;11.33;;;;;;;;4904605;29;45311;-80
2023/11/24 04:56:31;;;;;;;;;8.67;8.67;;;;;;;;4887628;28;45423;-79
2023/11/24 04:58:56;;;;;;;;;11.33;9.67;;;;;;;;4923664;28;45240;-80
2023/11/24 05:01:21;;;;;;;;;12.33;11.00;;;;;;;;4923539;28;45348;-79
2023/11/24 05:03:50;;;;;;;;;8.67;7.67;;;;;;;;4922326;28;46120;-79
2023/11/24 05:06:21;;;;;;;;;10.33;10.33;;;;;;;;4905949;28;45359;-80
2023/11/24 05:08:47;;;;;;;;;8.67;7.67;;;;;;;;4923480;28;45240;-80
2023/11/24 05:11:12;;;;;;;;;9.00;8.00;;;;;;;;4923337;28;45320;-80
2023/11/24 05:13:37;;;;;;;;;9.00;8.33;;;;;;;;4923134;28;46728;-80
2023/11/24 05:16:03;;;;;;;;;6.00;6.00;;;;;;;;4923309;28;45378;-80
2023/11/24 05:18:28;;;;;;;;;10.33;9.00;;;;;;;;4923360;28;45398;-80
2023/11/24 05:20:53;;;;;;;;;7.67;7.67;;;;;;;;4922701;28;45363;-79
2023/11/24 05:23:19;;;;;;;;;7.33;7.33;;;;;;;;4909411;28;45405;-81
2023/11/24 05:25:45;;;;;;;;;8.33;8.33;;;;;;;;4904224;29;45279;-81
2023/11/24 05:28:10;;;;;;;;;10.00;8.33;;;;;;;;4886943;29;45349;-79
2023/11/24 05:30:35;;;;;;;;;8.33;7.33;;;;;;;;4904064;29;45581;-80
2023/11/24 05:33:01;;;;;;;;;7.00;7.00;;;;;;;;4903973;29;45324;-80
2023/11/24 05:35:26;;;;;;;;;7.00;7.00;;;;;;;;4903518;29;45292;-80
2023/11/24 05:37:51;;;;;;;;;12.67;12.67;;;;;;;;4904080;29;45393;-80
2023/11/24 05:40:16;;;;;;;;;10.33;8.33;;;;;;;;4903847;29;45337;-79
2023/11/24 05:42:42;;;;;;;;;9.00;7.67;;;;;;;;4903589;29;46319;-80
2023/11/24 05:45:08;;;;;;;;;9.00;8.33;;;;;;;;4903464;29;45404;-80
2023/11/24 05:47:33;;;;;;;;;6.00;6.00;;;;;;;;4902961;29;45354;-80
2023/11/24 05:49:58;;;;;;;;;8.33;7.67;;;;;;;;4885600;29;45605;-80
2023/11/24 05:52:25;;;;;;;;;8.67;8.67;;;;;;;;4886597;29;46982;-80
2023/11/24 05:54:50;;;;;;;;;10.00;10.00;;;;;;;;4903805;29;45327;-80
2023/11/24 05:57:15;;;;;;;;;7.33;7.33;;;;;;;;4910335;28;45377;-80
2023/11/24 05:59:40;;;;;;;;;8.33;8.33;;;;;;;;4922677;28;45430;-80
2023/11/24 06:02:05;;;;;;;;;8.67;8.67;;;;;;;;4922726;28;45402;-80
2023/11/24 06:04:30;;;;;;;;;8.67;8.67;;;;;;;;4905159;28;45632;-80
2023/11/24 06:06:56;;;;;;;;;9.67;9.67;;;;;;;;4922782;28;45388;-79
2023/11/24 06:09:21;;;;;;;;;9.67;9.67;;;;;;;;4922418;28;45589;-80
2023/11/24 06:11:46;;;;;;;;;9.00;9.00;;;;;;;;4922022;28;46243;-80
2023/11/24 06:14:11;;;;;;;;;6.00;5.00;;;;;;;;4922576;28;45374;-79
2023/11/24 06:16:37;;;;;;;;;6.67;5.67;;;;;;;;4905060;28;45329;-79
2023/11/24 06:19:02;;;;;;;;;6.33;5.33;;;;;;;;4922213;28;45498;-81
2023/11/24 06:21:27;;;;;;;;;5.00;3.00;;;;;;;;4922335;28;45273;-79
2023/11/24 06:23:52;;;;;;;;;5.00;4.67;;;;;;;;4905117;28;45262;-80
2023/11/24 06:26:18;;;;;;;;;6.67;5.33;;;;;;;;4922519;28;45206;-80
2023/11/24 06:28:43;;;;;;;;;4.33;4.33;;;;;;;;4922197;28;45312;-80
2023/11/24 06:31:14;;;;;;;;;2.00;2.00;;;;;;;;4922323;28;46100;-79
2023/11/24 06:33:40;;;;;;;;;3.33;3.33;;;;;;;;4889019;29;45523;-79
2023/11/24 06:36:05;;;;;;;;;3.00;3.00;;;;;;;;4888900;29;45319;-79
2023/11/24 06:38:30;;;;;;;;;1.67;1.67;;;;;;;;4884064;29;46037;-80
2023/11/24 06:40:55;;;;;;;;;3.33;3.33;;;;;;;;4884080;29;45382;-80
2023/11/24 06:43:21;;;;;;;;;4.67;4.00;;;;;;;;4883994;29;45396;-80
2023/11/24 06:45:46;;;;;;;;;5.67;4.33;;;;;;;;4867390;29;45430;-82
2023/11/24 06:48:11;;;;;;;;;5.00;4.00;;;;;;;;4867152;29;46437;-80
2023/11/24 06:50:37;;;;;;;;;3.33;2.00;;;;;;;;4883698;29;45716;-81
2023/11/24 06:53:02;;;;;;;;;4.00;3.00;;;;;;;;4883202;29;45284;-81
2023/11/24 06:55:27;;;;;;;;;2.67;2.67;;;;;;;;4884118;29;45296;-80
2023/11/24 06:57:52;;;;;;;;;2.33;2.33;;;;;;;;4906617;28;45571;-82
2023/11/24 07:00:18;;;;;;;;;2.33;2.33;;;;;;;;4920952;28;45444;-80
2023/11/24 07:02:47;;;;;;;;;4.00;4.00;;;;;;;;4904162;28;45927;-80
2023/11/24 07:05:13;;;;;;;;;4.00;3.67;;;;;;;;4908074;28;45375;-79
2023/11/24 07:07:38;;;;;;;;;6.33;6.33;;;;;;;;4885613;29;46847;-80
2023/11/24 07:10:04;;;;;;;;;3.33;3.33;;;;;;;;4884452;29;45302;-81
2023/11/24 07:12:29;;;;;;;;;6.00;4.33;;;;;;;;4891258;29;45447;-80
2023/11/24 07:14:55;;;;;;;;;4.67;3.67;;;;;;;;4885336;29;45291;-79
2023/11/24 07:17:20;;;;;;;;;3.33;3.33;;;;;;;;4900980;29;46535;-75
2023/11/24 07:19:45;;;;;;;;;4.00;2.33;;;;;;;;4901550;29;45496;-75
2023/11/24 07:22:11;;;;;;;;;4.33;4.33;;;;;;;;4901227;29;45611;-74
2023/11/24 07:24:38;;;;;;;;;5.33;2.67;;;;;;;;4902723;29;45410;-75
2023/11/24 07:27:03;;;;;;;;;3.33;3.33;;;;;;;;4885154;29;46542;-75
2023/11/24 07:29:28;;;;;;;;;7.00;5.00;;;;;;;;4888575;29;48110;-75
2023/11/24 07:31:53;;;;;;;;;5.67;5.33;;;;;;;;4905815;29;45354;-75
2023/11/24 07:34:19;;;;;;;;;5.00;5.00;;;;;;;;4905747;29;45338;-75
2023/11/24 07:36:44;;;;;;;;;3.33;3.00;;;;;;;;4905604;29;45410;-75
2023/11/24 07:39:10;;;;;;;;;6.00;6.00;;;;;;;;4905538;29;45392;-75
2023/11/24 07:41:36;;;;;;;;;5.00;5.00;;;;;;;;4905329;29;45348;-74
2023/11/24 07:44:01;;;;;;;;;4.67;3.00;;;;;;;;4905737;29;45598;-75
2023/11/24 07:46:26;;;;;;;;;4.67;4.67;;;;;;;;4905187;29;45241;-75
2023/11/24 07:48:52;;;;;;;;;4.67;4.67;;;;;;;;4903824;29;47035;-75
2023/11/24 07:51:17;;;;;;;;;5.00;4.00;;;;;;;;4899836;29;45483;-75
2023/11/24 07:53:42;;;;;;;;;7.00;5.67;;;;;;;;4905571;29;45520;-76
2023/11/24 07:56:08;;;;;;;;;4.00;4.00;;;;;;;;4905020;29;45359;-76
2023/11/24 07:58:33;;;;;;;;;3.00;3.00;;;;;;;;4903714;28;47554;-76
2023/11/24 08:01:00;;;;;;;;;3.00;3.00;;;;;;;;4922884;28;45357;-75
2023/11/24 08:03:27;;;;;;;;;3.00;3.00;;;;;;;;4923742;28;45520;-75
2023/11/24 08:05:52;;;;;;;;;5.67;3.00;;;;;;;;4901648;29;46214;-75
2023/11/24 08:08:18;;;;;;;;;6.00;5.00;;;;;;;;4905234;29;45884;-75
2023/11/24 08:10:43;;;;;;;;;6.00;5.33;;;;;;;;4905199;29;45353;-76
2023/11/24 08:13:09;;;;;;;;;4.00;4.00;;;;;;;;4905148;29;45345;-75
2023/11/24 08:15:34;;;;;;;;;7.00;6.33;;;;;;;;4887706;29;46306;-75
2023/11/24 08:18:00;;;;;;;;;5.67;5.33;;;;;;;;4904942;29;45331;-75
2023/11/24 08:20:26;;;;;;;;;4.00;4.00;;;;;;;;4887869;29;45361;-75
2023/11/24 08:22:51;;;;;;;;;6.33;5.00;;;;;;;;4879678;29;45488;-76
2023/11/24 08:25:16;;;;;;;;;4.00;4.00;;;;;;;;4893653;29;45611;-76
2023/11/24 08:27:42;;;;;;;;;7.00;5.67;;;;;;;;4894048;29;47372;-77
2023/11/24 08:30:10;;;;;;;;;5.67;4.00;;;;;;;;4894963;29;45559;-76
2023/11/24 08:32:39;;;;;;;;;4.33;4.33;;;;;;;;4893895;29;45341;-76
2023/11/24 08:35:05;;;;;;;;;3.67;2.33;;;;;;;;4894353;29;45596;-76
2023/11/24 08:37:30;;;;;;;;;5.00;4.00;;;;;;;;4878286;29;47219;-74
2023/11/24 08:39:56;;;;;;;;;3.67;3.33;;;;;;;;4893608;29;45273;-75
2023/11/24 08:42:24;;;;;;;;;5.33;5.33;;;;;;;;4896109;29;45252;-76
2023/11/24 08:44:49;;;;;;;;;3.00;3.00;;;;;;;;4895033;29;45503;-74
2023/11/24 08:47:14;;;;;;;;;3.33;3.00;;;;;;;;4893441;29;45343;-74
2023/11/24 08:49:40;;;;;;;;;4.00;4.00;;;;;;;;4900547;28;45430;-74
2023/11/24 08:52:05;;;;;;;;;6.33;3.67;;;;;;;;4878989;29;45349;-74
2023/11/24 08:54:30;;;;;;;;;5.00;4.00;;;;;;;;4893256;29;45372;-74
2023/11/24 08:56:55;;;;;;;;;5.33;3.00;;;;;;;;4896955;28;45466;-75
2023/11/24 08:59:23;;;;;;;;;4.00;4.00;;;;;;;;4878406;29;45358;-75
2023/11/24 09:01:49;;;;;;;;;2.67;2.67;;;;;;;;4893781;29;45473;-76
2023/11/24 09:04:14;;;;;;;;;8.67;5.33;;;;;;;;4895922;29;45319;-76
2023/11/24 09:06:39;;;;;;;;;7.67;3.67;;;;;;;;4892148;29;45261;-76
2023/11/24 09:09:08;;;;;;;;;5.67;3.00;;;;;;;;4898933;29;45569;-75
2023/11/24 09:11:34;;;;;;;;;6.67;5.00;;;;;;;;4900306;28;45268;-74
2023/11/24 09:13:59;;;;;;;;;4.67;3.67;;;;;;;;4904056;29;45357;-74
2023/11/24 09:16:25;;;;;;;;;2.33;2.33;;;;;;;;4886527;29;48515;-75
2023/11/24 09:18:50;;;;;;;;;3.67;2.00;;;;;;;;4904171;29;45383;-74
2023/11/24 09:21:17;;;;;;;;;4.00;3.00;;;;;;;;4903762;28;45352;-75
2023/11/24 09:23:42;;;;;;;;;6.00;5.67;;;;;;;;4895440;29;45563;-75
2023/11/24 09:26:09;;;;;;;;;5.00;5.00;;;;;;;;4898026;28;46273;-74
2023/11/24 09:28:34;;;;;;;;;4.33;4.33;;;;;;;;4876000;29;45866;-75
2023/11/24 09:31:04;;;;;;;;;3.00;3.00;;;;;;;;4894161;29;45169;-76
2023/11/24 09:33:30;;;;;;;;;5.00;5.00;;;;;;;;4867460;29;46606;-76
2023/11/24 09:35:55;;;;;;;;;7.00;6.33;;;;;;;;4870906;29;47320;-80
2023/11/24 09:38:20;;;;;;;;;3.33;2.67;;;;;;;;4897859;29;46677;-77
2023/11/24 09:40:45;;;;;;;;;8.00;3.33;;;;;;;;4891871;29;45696;-75
2023/11/24 09:43:11;;;;;;;;;3.00;3.00;;;;;;;;4875022;29;47040;-77
2023/11/24 09:45:38;;;;;;;;;3.00;3.00;;;;;;;;4884200;29;45523;-76
2023/11/24 09:48:04;;;;;;;;;3.67;3.67;;;;;;;;4894424;29;45313;-76
2023/11/24 09:50:30;;;;;;;;;3.67;3.00;;;;;;;;4903071;29;45274;-76
2023/11/24 09:52:56;;;;;;;;;2.00;2.00;;;;;;;;4903610;29;45280;-75
2023/11/24 09:55:22;;;;;;;;;4.00;3.33;;;;;;;;4902931;28;46215;-75
2023/11/24 09:57:49;;;;;;;;;7.33;4.33;;;;;;;;4903721;28;45474;-75
2023/11/24 10:00:15;;;;;;;;;2.00;2.00;;;;;;;;4903135;29;45412;-76
2023/11/24 10:02:40;;;;;;;;;1.67;1.67;;;;;;;;4898988;29;46074;-75
2023/11/24 10:05:07;;;;;;;;;3.00;3.00;;;;;;;;4901197;29;46674;-76
2023/11/24 10:07:34;;;;;;;;;4.00;2.67;;;;;;;;4902133;29;45361;-75
2023/11/24 10:09:59;;;;;;;;;4.00;3.00;;;;;;;;4903348;29;45242;-76
2023/11/24 10:12:25;;;;;;;;;6.67;6.00;;;;;;;;4901445;29;45574;-76
2023/11/24 10:14:54;;;;;;;;;5.33;4.67;;;;;;;;4903134;29;45625;-76
2023/11/24 10:17:19;;;;;;;;;6.00;4.33;;;;;;;;4903117;29;45409;-76
2023/11/24 10:19:47;;;;;;;;;9.00;8.33;;;;;;;;4902250;29;45313;-75
2023/11/24 10:22:13;;;;;;;;;4.00;4.00;;;;;;;;4886152;29;45992;-76
2023/11/24 10:24:38;;;;;;;;;8.00;5.00;;;;;;;;4886066;29;48176;-75
2023/11/24 10:27:22;;;;;;;;;7.00;7.00;;;;;;;;4903103;29;45286;-74
2023/11/24 10:29:51;;;;;;;;;8.00;5.67;;;;;;;;4903358;29;45340;-75
2023/11/24 10:32:16;;;;;;;;;5.33;5.33;;;;;;;;4886027;29;47144;-75
2023/11/24 10:34:43;;;;;;;;;6.33;3.00;;;;;;;;4881149;29;47996;-78
2023/11/24 10:37:10;;;;;;;;;4.00;4.00;;;;;;;;4867420;29;46185;-75
2023/11/24 10:39:37;;;;;;;;;2.67;2.67;;;;;;;;4884364;29;45386;-75
2023/11/24 10:42:04;;;;;;;;;5.00;3.67;;;;;;;;4883933;29;45438;-75
2023/11/24 10:44:29;;;;;;;;;2.33;2.33;;;;;;;;4884013;29;45223;-75
2023/11/24 10:47:00;;;;;;;;;4.00;4.00;;;;;;;;4884216;29;45502;-75
2023/11/24 10:49:34;;;;;;;;;4.00;4.00;;;;;;;;4902750;29;45406;-75
2023/11/24 10:52:00;;;;;;;;;4.00;3.00;;;;;;;;4903272;29;45366;-73
2023/11/24 10:54:31;;;;;;;;;5.00;3.00;;;;;;;;4898239;29;46124;-74
2023/11/24 10:56:57;;;;;;;;;5.67;5.33;;;;;;;;4875534;28;45288;-76
2023/11/24 10:59:23;;;;;;;;;4.67;3.00;;;;;;;;4904997;28;45392;-75
2023/11/24 11:01:49;;;;;;;;;6.00;5.00;;;;;;;;4923123;28;45550;-75
2023/11/24 11:04:15;;;;;;;;;5.67;4.67;;;;;;;;4925166;28;46488;-76
2023/11/24 11:06:44;;;;;;;;;2.00;2.00;;;;;;;;4911585;28;45562;-76
2023/11/24 11:11:50;;;;;;;;;3.33;3.00;;;;;;;;4905904;29;45312;-77
2023/11/24 11:14:17;;;;;;;;;5.33;3.00;;;;;;;;4901726;29;47042;-77
2023/11/24 11:16:45;;;;;;;;;3.00;2.00;;;;;;;;4906238;29;45432;-76
2023/11/24 11:19:32;;;;;;;;;6.00;6.00;;;;;;;;4905637;29;45282;-77
2023/11/24 11:21:59;;;;;;;;;4.33;3.00;;;;;;;;4894186;29;45300;-76
2023/11/24 11:24:25;;;;;;;;;3.67;3.67;;;;;;;;4895545;29;45472;-76
2023/11/24 11:26:51;;;;;;;;;2.00;2.00;;;;;;;;4878520;29;45688;-78
2023/11/24 11:29:20;;;;;;;;;5.67;3.33;;;;;;;;4897363;29;45483;-78
2023/11/24 11:31:50;;;;;;;;;5.33;4.00;;;;;;;;4887629;29;46893;-79
2023/11/24 11:34:16;;;;;;;;;4.00;4.00;;;;;;;;4907336;29;45481;-77
2023/11/24 11:36:47;;;;;;;;;3.67;3.00;;;;;;;;4905918;29;45377;-75
2023/11/24 11:39:17;;;;;;;;;5.00;4.33;;;;;;;;4901501;29;45325;-75
2023/11/24 11:41:44;;;;;;;;;3.33;3.33;;;;;;;;4906050;29;45310;-77
2023/11/24 11:44:16;;;;;;;;;3.33;2.00;;;;;;;;4902055;29;47452;-75
2023/11/24 11:47:00;;;;;;;;;2.00;2.00;;;;;;;;4897139;29;45533;-75
2023/11/24 11:49:25;;;;;;;;;1.67;1.67;;;;;;;;4893606;29;45571;-76
2023/11/24 11:51:57;;;;;;;;;1.00;1.00;;;;;;;;4879885;29;47066;-75
2023/11/24 11:54:22;;;;;;;;;2.67;2.00;;;;;;;;4905996;29;45323;-78
2023/11/24 11:56:49;;;;;;;;;4.00;2.33;;;;;;;;4909950;28;45220;-77
2023/11/24 11:59:16;;;;;;;;;3.00;3.00;;;;;;;;4925619;28;45612;-78
2023/11/24 12:01:41;;;;;;;;;1.00;1.00;;;;;;;;4926860;28;45391;-75
2023/11/24 12:04:06;;;;;;;;;2.00;2.00;;;;;;;;4911378;28;46295;-75
2023/11/24 12:06:32;;;;;;;;;0.33;0.33;;;;;;;;4883457;29;45566;-74
2023/11/24 12:08:57;;;;;;;;;2.00;2.00;;;;;;;;4905430;29;45308;-75
2023/11/24 12:11:22;;;;;;;;;5.67;3.00;;;;;;;;4904846;29;45377;-74
2023/11/24 12:13:48;;;;;;;;;3.67;2.00;;;;;;;;4901185;29;47259;-75
2023/11/24 12:16:15;;;;;;;;;4.00;3.00;;;;;;;;4869331;29;45328;-75
2023/11/24 12:18:40;;;;;;;;;3.00;2.00;;;;;;;;4893842;29;45518;-76
2023/11/24 12:21:07;;;;;;;;;3.00;2.67;;;;;;;;4901333;29;45514;-75
2023/11/24 12:23:32;;;;;;;;;2.00;2.00;;;;;;;;4901822;29;45456;-76
2023/11/24 12:25:57;;;;;;;;;4.00;4.00;;;;;;;;4901357;29;45496;-77
2023/11/24 12:28:23;;;;;;;;;1.33;1.33;;;;;;;;4901737;29;45466;-76
2023/11/24 12:30:48;;;;;;;;;2.00;2.00;;;;;;;;4901438;29;45583;-76
2023/11/24 12:33:21;;;;;;;;;4.33;2.67;;;;;;;;4898535;29;48288;-77
2023/11/24 12:35:46;;;;;;;;;1.67;1.00;;;;;;;;4888196;29;45313;-78
2023/11/24 12:38:13;;;;;;;;;3.00;3.00;;;;;;;;4886519;29;45586;-76
2023/11/24 12:40:42;;;;;;;;;3.67;1.33;;;;;;;;4886050;29;45425;-76
2023/11/24 12:43:10;;;;;;;;;2.67;2.00;;;;;;;;4893688;29;45465;-76
2023/11/24 12:45:35;;;;;;;;;2.33;2.00;;;;;;;;4895863;29;45478;-76
2023/11/24 12:48:07;;;;;;;;;1.00;1.00;;;;;;;;4878281;29;45272;-76
2023/11/24 12:50:32;;;;;;;;;2.00;1.33;;;;;;;;4894076;29;45225;-76
2023/11/24 12:52:59;;;;;;;;;2.67;1.00;;;;;;;;4904496;29;46024;-77
2023/11/24 12:55:24;;;;;;;;;5.00;2.33;;;;;;;;4904374;29;45316;-76
2023/11/24 12:57:51;;;;;;;;;10.67;8.00;;;;;;;;4915268;28;45405;-76
2023/11/24 13:00:19;;;;;;;;;2.67;2.67;;;;;;;;4923562;28;45244;-76
2023/11/24 13:02:44;;;;;;;;;2.33;1.00;;;;;;;;4906295;28;46146;-76
2023/11/24 13:05:10;;;;;;;;;1.00;1.00;;;;;;;;4906300;28;45606;-76
2023/11/24 13:07:36;;;;;;;;;1.00;1.00;;;;;;;;4896919;29;45413;-75
2023/11/24 13:10:04;;;;;;;;;3.00;3.00;;;;;;;;4893929;29;45408;-75
2023/11/24 13:12:30;;;;;;;;;2.00;2.00;;;;;;;;4876039;29;47155;-75
2023/11/24 13:14:56;;;;;;;;;0.67;0.67;;;;;;;;4877887;29;45282;-75
2023/11/24 13:17:21;;;;;;;;;0.33;0.33;;;;;;;;4894098;29;45485;-75
2023/11/24 13:19:48;;;;;;;;;1.00;1.00;;;;;;;;4904017;29;45228;-74
2023/11/24 13:22:13;;;;;;;;;1.00;1.00;;;;;;;;4895788;29;45532;-74
2023/11/24 13:24:38;;;;;;;;;1.00;1.00;;;;;;;;4872515;29;45446;-75
2023/11/24 13:27:04;;;;;;;;;4.00;0.67;;;;;;;;4876993;29;45511;-75
2023/11/24 13:29:29;;;;;;;;;2.00;2.00;;;;;;;;4891154;29;45495;-74
2023/11/24 13:31:55;;;;;;;;;3.00;2.00;;;;;;;;4897274;29;45893;-74
2023/11/24 13:34:20;;;;;;;;;2.00;0.67;;;;;;;;4895676;29;45435;-76
2023/11/24 13:36:46;;;;;;;;;5.00;2.00;;;;;;;;4886673;29;45379;-74
2023/11/24 13:39:22;;;;;;;;;2.00;2.00;;;;;;;;4903925;29;45340;-75
2023/11/24 13:41:48;;;;;;;;;3.00;3.00;;;;;;;;4883677;29;47245;-75
2023/11/24 13:44:14;;;;;;;;;3.00;2.67;;;;;;;;4901755;29;45323;-75
2023/11/24 13:46:39;;;;;;;;;2.67;2.67;;;;;;;;4900670;29;45289;-75
2023/11/24 13:49:12;;;;;;;;;2.00;2.00;;;;;;;;4901123;29;45718;-75
2023/11/24 13:51:37;;;;;;;;;3.33;2.00;;;;;;;;4901287;29;45359;-74
2023/11/24 13:54:03;;;;;;;;;4.00;3.00;;;;;;;;4901445;29;45796;-75
2023/11/24 13:56:29;;;;;;;;;5.00;2.00;;;;;;;;4901309;28;45380;-75
2023/11/24 13:58:55;;;;;;;;;2.67;2.67;;;;;;;;4921788;28;46433;-75
2023/11/24 14:01:20;;;;;;;;;2.67;2.67;;;;;;;;4922518;28;46580;-74
2023/11/24 14:03:46;;;;;;;;;2.00;2.00;;;;;;;;4905267;28;45497;-75
2023/11/24 14:06:12;;;;;;;;;9.67;9.67;;;;;;;;4905227;28;45266;-74
2023/11/24 14:08:38;;;;;;;;;5.00;5.00;;;;;;;;4922608;28;45390;-74
2023/11/24 14:11:05;;;;;;;;;9.33;8.00;;;;;;;;4922002;28;46002;-75
2023/11/24 14:13:30;;;;;;;;;17.00;16.00;;;;;;;;4920070;28;45421;-76
2023/11/24 14:15:55;;;;;;;;;10.67;9.67;;;;;;;;4903537;29;45406;-75
2023/11/24 14:18:21;;;;;;;;;5.00;3.00;;;;;;;;4886338;29;47071;-75
2023/11/24 14:20:48;;;;;;;;;13.67;9.33;;;;;;;;4903325;29;46065;-75
2023/11/24 14:23:13;;;;;;;;;3.00;3.00;;;;;;;;4885890;29;45373;-76
2023/11/24 14:25:39;;;;;;;;;3.00;2.67;;;;;;;;4903435;29;45253;-77
2023/11/24 14:28:04;;;;;;;;;2.33;2.00;;;;;;;;4902153;29;45274;-76
2023/11/24 14:30:32;;;;;;;;;2.33;2.00;;;;;;;;4902691;29;45250;-77